Holly, Louisiana
Current Conditions -  °F | °C
As of 9:56 PM on Wednesday 22 Oct 2014 (Local Time) from KSHV Reporting Station
Clear Clear  
Wind Chill: 62°   Ceiling: Unl
Heat Index: 62°   Visibility: 10mi
Dew Point: 53°   Wind: 6mph
Humidity: 72%   Direction: 80°E
Pressure: 30.15"   Gusts: NA
Location:  32.117°N, 93.8044°W
Report Text: KSHV 230256Z 08005KT 10SM CLR 17/12 A3015 RMK AO2 SLP207 T01670117 51019
Loading
Personal Weather Stations






























Interactive Weather Map
Tropical Storm Tracking
New forecast layout! Learn more

10-Day Weather Forecast

Advertisements
Track Severe Weather on mobile